Главная страница
METAR-TAF:

METAR-TAF

Аэропорты :

Понпеи, Микронезия

широта: 06-59N, долгота: 158-12E, высота над уровнем моря: 2 м

Текущие метеонаблюдения

Эта сводка был подготовлена 9 минут назад, в 22:54 UTC
Ветер 10 Узел от западно-северо-западный
Температура 30°C
Влажность 79%
Давление 1011 hPa
Видимость: 24.1 км
Отдельные облака на высоте 1800 фута, мощно-кучевые.
Рассеянная облачность на высоте 13000 фута
Сплошная облачность на высоте 30000 фута

METAR: PTPN 212254Z 30010KT 15SM SCT018TCU BKN130 OVC300 30/26 A2984 RMK TCU SE-SW

Время: 10:03 (23:03 UTC)

Прогноз

Эта сводка был подготовлена 1 час и 2 минут назад, в 22:01 UTC
Прогноз действительный с 21-го 22 UTC до 22-го 18 UTC
Ветер 10 Узел от западно-северо-западный
Видимость: 10 км
Отдельные облака на высоте 1800 фута
Рассеянная облачность на высоте 13000 фута
ливни в окрестностях

TAF: PTPN 212201Z 2122/2218 30010KT P6SM VCSH SCT018 BKN130

Метеонаблюдения и прогнозы для более 4000 аэропортов (сводки METAR и TAF).

Имеющиеся станции представлены на карте желтыми и красными точками.

Чтобы увидеть название станции, наведите на нее мышь.

Затем щелкните, чтобы увидеть метеонаблюдения и метеопрогнозы.

Управление картой: чтобы увеличить масштаб, щелкните зеленые кнопки с черным крестиком; чтобы уменьшить масштаб, щелкните зеленую кнопку с тире; для просмотра соседних карт щелкайте зеленые стрелки.


METAR-TAF: